sensor_id;sensor_type;location;lat;lon;timestamp;temperature;humidity
17715;DHT22;8977;50.902;4.314;2024-01-27T00:01:50;9.70;99.90
17715;DHT22;8977;50.902;4.314;2024-01-27T00:04:17;9.60;99.90
17715;DHT22;8977;50.902;4.314;2024-01-27T00:06:45;9.60;99.90
17715;DHT22;8977;50.902;4.314;2024-01-27T00:09:12;9.60;99.90
17715;DHT22;8977;50.902;4.314;2024-01-27T00:11:39;9.60;99.90
17715;DHT22;8977;50.902;4.314;2024-01-27T00:14:06;9.60;99.90
17715;DHT22;8977;50.902;4.314;2024-01-27T00:16:33;9.60;99.90
17715;DHT22;8977;50.902;4.314;2024-01-27T00:19:00;9.60;99.90
17715;DHT22;8977;50.902;4.314;2024-01-27T00:21:26;9.60;99.90
17715;DHT22;8977;50.902;4.314;2024-01-27T00:23:55;9.60;99.90
17715;DHT22;8977;50.902;4.314;2024-01-27T00:26:26;9.50;99.90
17715;DHT22;8977;50.902;4.314;2024-01-27T00:28:53;9.50;99.90
17715;DHT22;8977;50.902;4.314;2024-01-27T00:31:20;9.50;99.90
17715;DHT22;8977;50.902;4.314;2024-01-27T00:33:47;9.50;99.90
17715;DHT22;8977;50.902;4.314;2024-01-27T00:36:14;9.40;99.90
17715;DHT22;8977;50.902;4.314;2024-01-27T00:38:41;9.40;99.90
17715;DHT22;8977;50.902;4.314;2024-01-27T00:41:09;9.40;99.90
17715;DHT22;8977;50.902;4.314;2024-01-27T00:43:42;9.50;99.90
17715;DHT22;8977;50.902;4.314;2024-01-27T00:46:08;9.40;99.90
17715;DHT22;8977;50.902;4.314;2024-01-27T00:48:35;9.40;99.90
17715;DHT22;8977;50.902;4.314;2024-01-27T00:51:02;9.40;99.90
17715;DHT22;8977;50.902;4.314;2024-01-27T00:53:29;9.30;99.90
17715;DHT22;8977;50.902;4.314;2024-01-27T00:55:56;9.30;99.90
17715;DHT22;8977;50.902;4.314;2024-01-27T00:58:24;9.30;99.90
17715;DHT22;8977;50.902;4.314;2024-01-27T01:00:51;9.30;99.90
17715;DHT22;8977;50.902;4.314;2024-01-27T01:03:18;9.30;99.90
17715;DHT22;8977;50.902;4.314;2024-01-27T01:05:45;9.40;99.90
17715;DHT22;8977;50.902;4.314;2024-01-27T01:08:12;9.30;99.90
17715;DHT22;8977;50.902;4.314;2024-01-27T01:10:39;9.30;99.90
17715;DHT22;8977;50.902;4.314;2024-01-27T01:13:05;9.30;99.90
17715;DHT22;8977;50.902;4.314;2024-01-27T01:15:34;9.30;99.90
17715;DHT22;8977;50.902;4.314;2024-01-27T01:18:00;9.40;99.90
17715;DHT22;8977;50.902;4.314;2024-01-27T01:20:27;9.40;99.90
17715;DHT22;8977;50.902;4.314;2024-01-27T01:22:55;9.30;99.90
17715;DHT22;8977;50.902;4.314;2024-01-27T01:25:22;9.30;99.90
17715;DHT22;8977;50.902;4.314;2024-01-27T01:27:49;9.30;99.90
17715;DHT22;8977;50.902;4.314;2024-01-27T01:30:16;9.30;99.90
17715;DHT22;8977;50.902;4.314;2024-01-27T01:32:44;9.20;99.90
17715;DHT22;8977;50.902;4.314;2024-01-27T01:35:11;9.30;99.90
17715;DHT22;8977;50.902;4.314;2024-01-27T01:37:38;9.20;99.90
17715;DHT22;8977;50.902;4.314;2024-01-27T01:40:06;9.20;99.90
17715;DHT22;8977;50.902;4.314;2024-01-27T01:42:33;9.30;99.90
17715;DHT22;8977;50.902;4.314;2024-01-27T01:45:00;9.20;99.90
17715;DHT22;8977;50.902;4.314;2024-01-27T01:47:27;9.20;99.90
17715;DHT22;8977;50.902;4.314;2024-01-27T01:49:56;9.20;99.90
17715;DHT22;8977;50.902;4.314;2024-01-27T01:52:23;9.20;99.90
17715;DHT22;8977;50.902;4.314;2024-01-27T01:54:50;9.20;99.90
17715;DHT22;8977;50.902;4.314;2024-01-27T01:57:17;9.20;99.90
17715;DHT22;8977;50.902;4.314;2024-01-27T01:59:45;9.20;99.90
17715;DHT22;8977;50.902;4.314;2024-01-27T02:02:12;9.20;99.90
17715;DHT22;8977;50.902;4.314;2024-01-27T02:04:41;9.20;99.90
17715;DHT22;8977;50.902;4.314;2024-01-27T02:07:09;9.10;99.90
17715;DHT22;8977;50.902;4.314;2024-01-27T02:09:36;9.10;99.90
17715;DHT22;8977;50.902;4.314;2024-01-27T02:12:03;9.10;99.90
17715;DHT22;8977;50.902;4.314;2024-01-27T02:14:30;9.10;99.90
17715;DHT22;8977;50.902;4.314;2024-01-27T02:16:57;9.20;99.90
17715;DHT22;8977;50.902;4.314;2024-01-27T02:19:24;9.20;99.90
17715;DHT22;8977;50.902;4.314;2024-01-27T02:21:51;9.20;99.90
17715;DHT22;8977;50.902;4.314;2024-01-27T02:24:20;9.10;99.90
17715;DHT22;8977;50.902;4.314;2024-01-27T02:26:46;9.20;99.90
17715;DHT22;8977;50.902;4.314;2024-01-27T02:29:13;9.10;99.90
17715;DHT22;8977;50.902;4.314;2024-01-27T02:31:40;9.20;99.90
17715;DHT22;8977;50.902;4.314;2024-01-27T02:34:07;9.10;99.90
17715;DHT22;8977;50.902;4.314;2024-01-27T02:36:34;9.10;99.90
17715;DHT22;8977;50.902;4.314;2024-01-27T02:39:01;9.10;99.90
17715;DHT22;8977;50.902;4.314;2024-01-27T02:41:29;9.10;99.90
17715;DHT22;8977;50.902;4.314;2024-01-27T02:43:56;9.00;99.90
17715;DHT22;8977;50.902;4.314;2024-01-27T02:46:23;9.00;99.90
17715;DHT22;8977;50.902;4.314;2024-01-27T02:48:50;9.10;99.90
17715;DHT22;8977;50.902;4.314;2024-01-27T02:51:19;9.10;99.90
17715;DHT22;8977;50.902;4.314;2024-01-27T02:53:47;9.10;99.90
17715;DHT22;8977;50.902;4.314;2024-01-27T02:56:15;9.10;99.90
17715;DHT22;8977;50.902;4.314;2024-01-27T02:58:43;9.00;99.90
17715;DHT22;8977;50.902;4.314;2024-01-27T03:01:10;9.00;99.90
17715;DHT22;8977;50.902;4.314;2024-01-27T03:03:36;9.00;99.90
17715;DHT22;8977;50.902;4.314;2024-01-27T03:06:03;9.00;99.90
17715;DHT22;8977;50.902;4.314;2024-01-27T03:08:30;9.00;99.90
17715;DHT22;8977;50.902;4.314;2024-01-27T03:10:57;9.00;99.90
17715;DHT22;8977;50.902;4.314;2024-01-27T03:13:24;9.00;99.90
17715;DHT22;8977;50.902;4.314;2024-01-27T03:15:52;9.00;99.90
17715;DHT22;8977;50.902;4.314;2024-01-27T03:18:19;9.00;99.90
17715;DHT22;8977;50.902;4.314;2024-01-27T03:20:46;8.90;99.90
17715;DHT22;8977;50.902;4.314;2024-01-27T03:23:13;9.00;99.90
17715;DHT22;8977;50.902;4.314;2024-01-27T03:25:39;9.00;99.90
17715;DHT22;8977;50.902;4.314;2024-01-27T03:28:06;9.00;99.90
17715;DHT22;8977;50.902;4.314;2024-01-27T03:30:33;9.00;99.90
17715;DHT22;8977;50.902;4.314;2024-01-27T03:33:01;8.90;99.90
17715;DHT22;8977;50.902;4.314;2024-01-27T03:35:28;9.00;99.90
17715;DHT22;8977;50.902;4.314;2024-01-27T03:37:55;8.90;99.90
17715;DHT22;8977;50.902;4.314;2024-01-27T03:40:22;8.90;99.90
17715;DHT22;8977;50.902;4.314;2024-01-27T03:42:49;8.90;99.90
17715;DHT22;8977;50.902;4.314;2024-01-27T03:45:16;8.90;99.90
17715;DHT22;8977;50.902;4.314;2024-01-27T03:47:42;8.80;99.90
17715;DHT22;8977;50.902;4.314;2024-01-27T03:50:13;8.80;99.90
17715;DHT22;8977;50.902;4.314;2024-01-27T03:52:41;8.90;99.90
17715;DHT22;8977;50.902;4.314;2024-01-27T03:55:08;8.90;99.90
17715;DHT22;8977;50.902;4.314;2024-01-27T03:57:35;8.90;99.90
17715;DHT22;8977;50.902;4.314;2024-01-27T04:00:03;8.80;99.90
17715;DHT22;8977;50.902;4.314;2024-01-27T04:02:30;8.80;99.90
17715;DHT22;8977;50.902;4.314;2024-01-27T04:04:57;8.80;99.90
17715;DHT22;8977;50.902;4.314;2024-01-27T04:07:26;8.90;99.90
17715;DHT22;8977;50.902;4.314;2024-01-27T04:09:53;8.90;99.90
17715;DHT22;8977;50.902;4.314;2024-01-27T04:12:20;8.90;99.90
17715;DHT22;8977;50.902;4.314;2024-01-27T04:14:47;8.90;99.90
17715;DHT22;8977;50.902;4.314;2024-01-27T04:17:14;8.90;99.90
17715;DHT22;8977;50.902;4.314;2024-01-27T04:19:40;8.90;99.90
17715;DHT22;8977;50.902;4.314;2024-01-27T04:22:07;8.80;99.90
17715;DHT22;8977;50.902;4.314;2024-01-27T04:24:35;8.90;99.90
17715;DHT22;8977;50.902;4.314;2024-01-27T04:27:03;8.80;99.90
17715;DHT22;8977;50.902;4.314;2024-01-27T04:29:29;8.80;99.90
17715;DHT22;8977;50.902;4.314;2024-01-27T04:31:56;8.80;99.90
17715;DHT22;8977;50.902;4.314;2024-01-27T04:34:23;8.80;99.90
17715;DHT22;8977;50.902;4.314;2024-01-27T04:36:50;8.80;99.90
17715;DHT22;8977;50.902;4.314;2024-01-27T04:39:18;8.80;99.90
17715;DHT22;8977;50.902;4.314;2024-01-27T04:41:46;8.80;99.90
17715;DHT22;8977;50.902;4.314;2024-01-27T04:44:13;8.80;99.90
17715;DHT22;8977;50.902;4.314;2024-01-27T04:46:39;8.80;99.90
17715;DHT22;8977;50.902;4.314;2024-01-27T04:49:06;8.80;99.90
17715;DHT22;8977;50.902;4.314;2024-01-27T04:51:33;8.80;99.90
17715;DHT22;8977;50.902;4.314;2024-01-27T04:54:00;8.80;99.90
17715;DHT22;8977;50.902;4.314;2024-01-27T04:56:27;8.70;99.90
17715;DHT22;8977;50.902;4.314;2024-01-27T04:58:55;8.70;99.90
17715;DHT22;8977;50.902;4.314;2024-01-27T05:01:22;8.70;99.90
17715;DHT22;8977;50.902;4.314;2024-01-27T05:03:49;8.70;99.90
17715;DHT22;8977;50.902;4.314;2024-01-27T05:06:16;8.70;99.90
17715;DHT22;8977;50.902;4.314;2024-01-27T05:08:43;8.70;99.90
17715;DHT22;8977;50.902;4.314;2024-01-27T05:11:10;8.70;99.90
17715;DHT22;8977;50.902;4.314;2024-01-27T05:13:39;8.70;99.90
17715;DHT22;8977;50.902;4.314;2024-01-27T05:16:08;8.70;99.90
17715;DHT22;8977;50.902;4.314;2024-01-27T05:18:34;8.70;99.90
17715;DHT22;8977;50.902;4.314;2024-01-27T05:21:01;8.70;99.90
17715;DHT22;8977;50.902;4.314;2024-01-27T05:23:29;8.70;99.90
17715;DHT22;8977;50.902;4.314;2024-01-27T05:25:56;8.70;99.90
17715;DHT22;8977;50.902;4.314;2024-01-27T05:28:23;8.70;99.90
17715;DHT22;8977;50.902;4.314;2024-01-27T05:30:50;8.70;99.90
17715;DHT22;8977;50.902;4.314;2024-01-27T05:33:18;8.70;99.90
17715;DHT22;8977;50.902;4.314;2024-01-27T05:35:45;8.70;99.90
17715;DHT22;8977;50.902;4.314;2024-01-27T05:38:12;8.60;99.90
17715;DHT22;8977;50.902;4.314;2024-01-27T05:40:39;8.60;99.90
17715;DHT22;8977;50.902;4.314;2024-01-27T05:43:05;8.60;99.90
17715;DHT22;8977;50.902;4.314;2024-01-27T05:45:32;8.70;99.90
17715;DHT22;8977;50.902;4.314;2024-01-27T05:47:59;8.70;99.90
17715;DHT22;8977;50.902;4.314;2024-01-27T05:50:28;8.70;99.90
17715;DHT22;8977;50.902;4.314;2024-01-27T05:52:56;8.70;99.90
17715;DHT22;8977;50.902;4.314;2024-01-27T05:55:23;8.60;99.90
17715;DHT22;8977;50.902;4.314;2024-01-27T05:57:50;8.60;99.90
17715;DHT22;8977;50.902;4.314;2024-01-27T06:00:17;8.60;99.90
17715;DHT22;8977;50.902;4.314;2024-01-27T06:02:44;8.70;99.90
17715;DHT22;8977;50.902;4.314;2024-01-27T06:05:11;8.60;99.90
17715;DHT22;8977;50.902;4.314;2024-01-27T06:07:39;8.60;99.90
17715;DHT22;8977;50.902;4.314;2024-01-27T06:10:07;8.60;99.90
17715;DHT22;8977;50.902;4.314;2024-01-27T06:12:35;8.60;99.90
17715;DHT22;8977;50.902;4.314;2024-01-27T06:15:02;8.60;99.90
17715;DHT22;8977;50.902;4.314;2024-01-27T06:17:29;8.50;99.90
17715;DHT22;8977;50.902;4.314;2024-01-27T06:19:56;8.40;99.90
17715;DHT22;8977;50.902;4.314;2024-01-27T06:22:23;8.50;99.90
17715;DHT22;8977;50.902;4.314;2024-01-27T06:24:51;8.40;99.90
17715;DHT22;8977;50.902;4.314;2024-01-27T06:27:18;8.40;99.90
17715;DHT22;8977;50.902;4.314;2024-01-27T06:29:45;8.40;99.90
17715;DHT22;8977;50.902;4.314;2024-01-27T06:32:12;8.40;99.90
17715;DHT22;8977;50.902;4.314;2024-01-27T06:34:39;8.40;99.90
17715;DHT22;8977;50.902;4.314;2024-01-27T06:37:06;8.40;99.90
17715;DHT22;8977;50.902;4.314;2024-01-27T06:39:33;8.40;99.90
17715;DHT22;8977;50.902;4.314;2024-01-27T06:42:01;8.40;99.90
17715;DHT22;8977;50.902;4.314;2024-01-27T06:44:28;8.40;99.90
17715;DHT22;8977;50.902;4.314;2024-01-27T06:46:55;8.40;99.90
17715;DHT22;8977;50.902;4.314;2024-01-27T06:49:22;8.40;99.90
17715;DHT22;8977;50.902;4.314;2024-01-27T06:51:49;8.40;99.90
17715;DHT22;8977;50.902;4.314;2024-01-27T06:54:16;8.40;99.90
17715;DHT22;8977;50.902;4.314;2024-01-27T06:56:43;8.40;99.90
17715;DHT22;8977;50.902;4.314;2024-01-27T06:59:11;8.40;99.90
17715;DHT22;8977;50.902;4.314;2024-01-27T07:01:38;8.40;99.90
17715;DHT22;8977;50.902;4.314;2024-01-27T07:04:05;8.40;99.90
17715;DHT22;8977;50.902;4.314;2024-01-27T07:06:32;8.40;99.90
17715;DHT22;8977;50.902;4.314;2024-01-27T07:08:59;8.40;99.90
17715;DHT22;8977;50.902;4.314;2024-01-27T07:11:26;8.40;99.90
17715;DHT22;8977;50.902;4.314;2024-01-27T07:13:52;8.40;99.90
17715;DHT22;8977;50.902;4.314;2024-01-27T07:16:21;8.40;99.90
17715;DHT22;8977;50.902;4.314;2024-01-27T07:18:47;8.40;99.90
17715;DHT22;8977;50.902;4.314;2024-01-27T07:21:15;8.40;99.90
17715;DHT22;8977;50.902;4.314;2024-01-27T07:23:43;8.40;99.90
17715;DHT22;8977;50.902;4.314;2024-01-27T07:26:10;8.70;99.90
17715;DHT22;8977;50.902;4.314;2024-01-27T07:28:37;8.60;99.90
17715;DHT22;8977;50.902;4.314;2024-01-27T07:31:04;8.50;99.90
17715;DHT22;8977;50.902;4.314;2024-01-27T07:33:33;8.50;99.90
17715;DHT22;8977;50.902;4.314;2024-01-27T07:36:00;8.50;99.90
17715;DHT22;8977;50.902;4.314;2024-01-27T07:38:27;8.50;99.90
17715;DHT22;8977;50.902;4.314;2024-01-27T07:40:54;8.50;99.90
17715;DHT22;8977;50.902;4.314;2024-01-27T07:43:21;8.50;99.90
17715;DHT22;8977;50.902;4.314;2024-01-27T07:45:48;8.50;99.90
17715;DHT22;8977;50.902;4.314;2024-01-27T07:48:17;8.50;99.90
17715;DHT22;8977;50.902;4.314;2024-01-27T07:50:46;8.50;99.90
17715;DHT22;8977;50.902;4.314;2024-01-27T07:53:14;8.50;99.90
17715;DHT22;8977;50.902;4.314;2024-01-27T07:55:41;8.50;99.90
17715;DHT22;8977;50.902;4.314;2024-01-27T07:58:08;8.50;99.90
17715;DHT22;8977;50.902;4.314;2024-01-27T08:00:35;8.50;99.90
17715;DHT22;8977;50.902;4.314;2024-01-27T08:03:02;8.40;99.90
17715;DHT22;8977;50.902;4.314;2024-01-27T08:05:29;8.40;99.90
17715;DHT22;8977;50.902;4.314;2024-01-27T08:07:57;8.40;99.90
17715;DHT22;8977;50.902;4.314;2024-01-27T08:10:24;8.40;99.90
17715;DHT22;8977;50.902;4.314;2024-01-27T08:12:51;8.40;99.90
17715;DHT22;8977;50.902;4.314;2024-01-27T08:15:18;8.50;99.90
17715;DHT22;8977;50.902;4.314;2024-01-27T08:17:44;8.50;99.90
17715;DHT22;8977;50.902;4.314;2024-01-27T08:20:12;8.50;99.90
17715;DHT22;8977;50.902;4.314;2024-01-27T08:22:39;8.60;99.90
17715;DHT22;8977;50.902;4.314;2024-01-27T08:25:08;8.50;99.90
17715;DHT22;8977;50.902;4.314;2024-01-27T08:27:35;8.50;99.90
17715;DHT22;8977;50.902;4.314;2024-01-27T08:30:02;8.50;99.90
17715;DHT22;8977;50.902;4.314;2024-01-27T08:32:29;8.50;99.90
17715;DHT22;8977;50.902;4.314;2024-01-27T08:34:56;8.50;99.90
17715;DHT22;8977;50.902;4.314;2024-01-27T08:37:23;8.50;99.90
17715;DHT22;8977;50.902;4.314;2024-01-27T08:39:50;8.60;99.90
17715;DHT22;8977;50.902;4.314;2024-01-27T08:42:18;8.60;99.90
17715;DHT22;8977;50.902;4.314;2024-01-27T08:44:45;8.60;99.90
17715;DHT22;8977;50.902;4.314;2024-01-27T08:47:12;8.60;99.90
17715;DHT22;8977;50.902;4.314;2024-01-27T08:49:39;8.60;99.90
17715;DHT22;8977;50.902;4.314;2024-01-27T08:52:07;8.60;99.90
17715;DHT22;8977;50.902;4.314;2024-01-27T08:54:33;8.60;99.90
17715;DHT22;8977;50.902;4.314;2024-01-27T08:57:00;8.70;99.90
17715;DHT22;8977;50.902;4.314;2024-01-27T08:59:29;8.60;99.90
17715;DHT22;8977;50.902;4.314;2024-01-27T09:01:55;8.60;99.90
17715;DHT22;8977;50.902;4.314;2024-01-27T09:04:22;8.70;99.90
17715;DHT22;8977;50.902;4.314;2024-01-27T09:06:49;8.80;99.90
17715;DHT22;8977;50.902;4.314;2024-01-27T09:09:16;8.70;99.90
17715;DHT22;8977;50.902;4.314;2024-01-27T09:11:43;8.80;99.90
17715;DHT22;8977;50.902;4.314;2024-01-27T09:14:11;8.70;99.90
17715;DHT22;8977;50.902;4.314;2024-01-27T09:16:39;8.70;99.90
17715;DHT22;8977;50.902;4.314;2024-01-27T09:19:07;8.70;99.90
17715;DHT22;8977;50.902;4.314;2024-01-27T09:21:34;8.80;99.90
17715;DHT22;8977;50.902;4.314;2024-01-27T09:24:02;8.80;99.90
17715;DHT22;8977;50.902;4.314;2024-01-27T09:26:29;8.80;99.90
17715;DHT22;8977;50.902;4.314;2024-01-27T09:28:56;8.80;99.90
17715;DHT22;8977;50.902;4.314;2024-01-27T09:31:24;8.80;99.90
17715;DHT22;8977;50.902;4.314;2024-01-27T09:33:53;8.90;99.90
17715;DHT22;8977;50.902;4.314;2024-01-27T09:36:21;8.90;99.90
17715;DHT22;8977;50.902;4.314;2024-01-27T09:38:48;8.90;99.90
17715;DHT22;8977;50.902;4.314;2024-01-27T09:41:15;8.90;99.90
17715;DHT22;8977;50.902;4.314;2024-01-27T09:43:43;9.00;99.90
17715;DHT22;8977;50.902;4.314;2024-01-27T09:46:10;9.00;99.90
17715;DHT22;8977;50.902;4.314;2024-01-27T09:48:37;9.00;99.90
17715;DHT22;8977;50.902;4.314;2024-01-27T09:51:08;9.00;99.90
17715;DHT22;8977;50.902;4.314;2024-01-27T09:53:35;9.00;99.90
17715;DHT22;8977;50.902;4.314;2024-01-27T09:56:03;9.00;99.90
17715;DHT22;8977;50.902;4.314;2024-01-27T09:58:30;9.00;99.90
17715;DHT22;8977;50.902;4.314;2024-01-27T10:00:58;9.10;99.90
17715;DHT22;8977;50.902;4.314;2024-01-27T10:03:26;9.10;99.90
17715;DHT22;8977;50.902;4.314;2024-01-27T10:05:55;9.20;99.90
17715;DHT22;8977;50.902;4.314;2024-01-27T10:08:23;9.20;99.90
17715;DHT22;8977;50.902;4.314;2024-01-27T10:10:53;9.20;99.90
17715;DHT22;8977;50.902;4.314;2024-01-27T10:13:21;9.20;99.90
17715;DHT22;8977;50.902;4.314;2024-01-27T10:15:59;9.30;99.90
17715;DHT22;8977;50.902;4.314;2024-01-27T10:18:26;9.30;99.90
17715;DHT22;8977;50.902;4.314;2024-01-27T10:20:54;9.40;99.90
17715;DHT22;8977;50.902;4.314;2024-01-27T10:23:20;9.40;99.90
17715;DHT22;8977;50.902;4.314;2024-01-27T10:25:49;9.50;99.90
17715;DHT22;8977;50.902;4.314;2024-01-27T10:28:16;9.60;99.90
17715;DHT22;8977;50.902;4.314;2024-01-27T10:30:43;9.70;99.90
17715;DHT22;8977;50.902;4.314;2024-01-27T10:33:10;9.70;99.90
17715;DHT22;8977;50.902;4.314;2024-01-27T10:35:39;9.80;99.90
17715;DHT22;8977;50.902;4.314;2024-01-27T10:38:05;9.80;99.90
17715;DHT22;8977;50.902;4.314;2024-01-27T10:40:32;9.90;99.90
17715;DHT22;8977;50.902;4.314;2024-01-27T10:43:05;9.80;99.90
17715;DHT22;8977;50.902;4.314;2024-01-27T10:45:35;9.80;99.90
17715;DHT22;8977;50.902;4.314;2024-01-27T10:48:03;9.90;99.90
17715;DHT22;8977;50.902;4.314;2024-01-27T10:50:35;9.90;99.90
17715;DHT22;8977;50.902;4.314;2024-01-27T10:53:04;9.80;99.90
17715;DHT22;8977;50.902;4.314;2024-01-27T10:55:33;9.90;99.90
17715;DHT22;8977;50.902;4.314;2024-01-27T10:58:01;9.90;99.90
17715;DHT22;8977;50.902;4.314;2024-01-27T11:00:30;9.90;99.90
17715;DHT22;8977;50.902;4.314;2024-01-27T11:02:59;9.90;99.90
17715;DHT22;8977;50.902;4.314;2024-01-27T11:05:28;10.00;99.90
17715;DHT22;8977;50.902;4.314;2024-01-27T11:07:56;10.00;99.90
17715;DHT22;8977;50.902;4.314;2024-01-27T11:10:25;10.10;99.90
17715;DHT22;8977;50.902;4.314;2024-01-27T11:12:56;10.20;99.90
17715;DHT22;8977;50.902;4.314;2024-01-27T11:15:23;10.20;99.90
17715;DHT22;8977;50.902;4.314;2024-01-27T11:17:57;10.30;99.90
17715;DHT22;8977;50.902;4.314;2024-01-27T11:20:24;10.40;99.90
17715;DHT22;8977;50.902;4.314;2024-01-27T11:22:51;10.40;99.90
17715;DHT22;8977;50.902;4.314;2024-01-27T11:25:18;10.40;99.90
17715;DHT22;8977;50.902;4.314;2024-01-27T11:27:46;10.50;99.90
17715;DHT22;8977;50.902;4.314;2024-01-27T11:30:25;10.50;99.90
17715;DHT22;8977;50.902;4.314;2024-01-27T11:32:55;10.50;99.90
17715;DHT22;8977;50.902;4.314;2024-01-27T11:35:22;10.60;99.90
17715;DHT22;8977;50.902;4.314;2024-01-27T11:37:49;10.60;99.90
17715;DHT22;8977;50.902;4.314;2024-01-27T11:40:16;10.60;99.90
17715;DHT22;8977;50.902;4.314;2024-01-27T11:42:43;10.50;99.90
17715;DHT22;8977;50.902;4.314;2024-01-27T11:45:09;10.60;99.90
17715;DHT22;8977;50.902;4.314;2024-01-27T11:47:36;10.50;99.90
17715;DHT22;8977;50.902;4.314;2024-01-27T11:50:05;10.50;99.90
17715;DHT22;8977;50.902;4.314;2024-01-27T11:52:33;10.50;99.90
17715;DHT22;8977;50.902;4.314;2024-01-27T11:55:01;10.50;99.90
17715;DHT22;8977;50.902;4.314;2024-01-27T11:57:28;10.50;99.90
17715;DHT22;8977;50.902;4.314;2024-01-27T11:59:56;10.50;99.90
17715;DHT22;8977;50.902;4.314;2024-01-27T12:02:23;10.60;99.90
17715;DHT22;8977;50.902;4.314;2024-01-27T12:04:50;10.50;99.90
17715;DHT22;8977;50.902;4.314;2024-01-27T12:07:19;10.50;99.90
17715;DHT22;8977;50.902;4.314;2024-01-27T12:09:48;10.60;99.90
17715;DHT22;8977;50.902;4.314;2024-01-27T12:12:15;10.60;99.90
17715;DHT22;8977;50.902;4.314;2024-01-27T12:14:45;10.70;99.90
17715;DHT22;8977;50.902;4.314;2024-01-27T12:17:12;10.70;99.90
17715;DHT22;8977;50.902;4.314;2024-01-27T12:19:39;10.70;99.90
17715;DHT22;8977;50.902;4.314;2024-01-27T12:22:21;10.70;99.90
17715;DHT22;8977;50.902;4.314;2024-01-27T12:24:49;10.80;99.90
17715;DHT22;8977;50.902;4.314;2024-01-27T12:27:16;10.90;99.90
17715;DHT22;8977;50.902;4.314;2024-01-27T12:29:43;10.80;99.90
17715;DHT22;8977;50.902;4.314;2024-01-27T12:32:10;10.80;99.90
17715;DHT22;8977;50.902;4.314;2024-01-27T12:34:40;10.80;99.90
17715;DHT22;8977;50.902;4.314;2024-01-27T12:37:08;10.80;99.90
17715;DHT22;8977;50.902;4.314;2024-01-27T12:39:36;10.80;99.90
17715;DHT22;8977;50.902;4.314;2024-01-27T12:42:04;10.80;99.90
17715;DHT22;8977;50.902;4.314;2024-01-27T12:44:31;10.80;99.90
17715;DHT22;8977;50.902;4.314;2024-01-27T12:46:58;10.90;99.90
17715;DHT22;8977;50.902;4.314;2024-01-27T12:49:26;10.90;99.90
17715;DHT22;8977;50.902;4.314;2024-01-27T12:51:53;10.90;99.90
17715;DHT22;8977;50.902;4.314;2024-01-27T12:54:19;11.00;99.90
17715;DHT22;8977;50.902;4.314;2024-01-27T12:56:48;11.00;99.90
17715;DHT22;8977;50.902;4.314;2024-01-27T12:59:15;11.10;99.90
17715;DHT22;8977;50.902;4.314;2024-01-27T13:01:41;11.10;99.90
17715;DHT22;8977;50.902;4.314;2024-01-27T13:04:08;11.00;99.90
17715;DHT22;8977;50.902;4.314;2024-01-27T13:06:35;11.00;99.90
17715;DHT22;8977;50.902;4.314;2024-01-27T13:09:03;11.00;99.90
17715;DHT22;8977;50.902;4.314;2024-01-27T13:11:30;11.10;99.90
17715;DHT22;8977;50.902;4.314;2024-01-27T13:13:58;11.10;99.90
17715;DHT22;8977;50.902;4.314;2024-01-27T13:16:25;11.10;99.90
17715;DHT22;8977;50.902;4.314;2024-01-27T13:18:52;11.10;99.90
17715;DHT22;8977;50.902;4.314;2024-01-27T13:21:19;11.10;99.90
17715;DHT22;8977;50.902;4.314;2024-01-27T13:23:46;11.10;99.90
17715;DHT22;8977;50.902;4.314;2024-01-27T13:26:13;11.10;99.90
17715;DHT22;8977;50.902;4.314;2024-01-27T13:28:41;11.20;99.90
17715;DHT22;8977;50.902;4.314;2024-01-27T13:31:09;11.20;99.90
17715;DHT22;8977;50.902;4.314;2024-01-27T13:33:36;11.20;99.90
17715;DHT22;8977;50.902;4.314;2024-01-27T13:36:04;11.20;99.90
17715;DHT22;8977;50.902;4.314;2024-01-27T13:38:31;11.20;99.90
17715;DHT22;8977;50.902;4.314;2024-01-27T13:40:59;11.20;99.90
17715;DHT22;8977;50.902;4.314;2024-01-27T13:43:26;11.20;99.90
17715;DHT22;8977;50.902;4.314;2024-01-27T13:45:53;11.20;99.90
17715;DHT22;8977;50.902;4.314;2024-01-27T13:48:21;11.20;99.90
17715;DHT22;8977;50.902;4.314;2024-01-27T13:50:48;11.20;99.90
17715;DHT22;8977;50.902;4.314;2024-01-27T13:53:15;11.10;99.90
17715;DHT22;8977;50.902;4.314;2024-01-27T13:55:42;11.10;99.90
17715;DHT22;8977;50.902;4.314;2024-01-27T13:58:10;11.10;99.90
17715;DHT22;8977;50.902;4.314;2024-01-27T14:00:37;11.10;99.90
17715;DHT22;8977;50.902;4.314;2024-01-27T14:03:04;11.10;99.90
17715;DHT22;8977;50.902;4.314;2024-01-27T14:05:32;11.10;99.90
17715;DHT22;8977;50.902;4.314;2024-01-27T14:07:59;11.10;99.90
17715;DHT22;8977;50.902;4.314;2024-01-27T14:10:26;11.00;99.90
17715;DHT22;8977;50.902;4.314;2024-01-27T14:12:53;11.10;99.90
17715;DHT22;8977;50.902;4.314;2024-01-27T14:15:21;11.00;99.90
17715;DHT22;8977;50.902;4.314;2024-01-27T14:17:48;11.00;99.90
17715;DHT22;8977;50.902;4.314;2024-01-27T14:20:15;11.00;99.90
17715;DHT22;8977;50.902;4.314;2024-01-27T14:22:43;11.00;99.90
17715;DHT22;8977;50.902;4.314;2024-01-27T14:25:10;11.00;99.90
17715;DHT22;8977;50.902;4.314;2024-01-27T14:27:37;11.00;99.90
17715;DHT22;8977;50.902;4.314;2024-01-27T14:30:05;10.90;99.90
17715;DHT22;8977;50.902;4.314;2024-01-27T14:32:32;10.90;99.90
17715;DHT22;8977;50.902;4.314;2024-01-27T14:34:59;10.90;99.90
17715;DHT22;8977;50.902;4.314;2024-01-27T14:37:26;10.90;99.90
17715;DHT22;8977;50.902;4.314;2024-01-27T14:39:54;10.90;99.90
17715;DHT22;8977;50.902;4.314;2024-01-27T14:42:21;10.90;99.90
17715;DHT22;8977;50.902;4.314;2024-01-27T14:44:48;10.90;99.90
17715;DHT22;8977;50.902;4.314;2024-01-27T14:47:15;10.90;99.90
17715;DHT22;8977;50.902;4.314;2024-01-27T14:49:42;10.90;99.90
17715;DHT22;8977;50.902;4.314;2024-01-27T14:52:10;10.80;99.90
17715;DHT22;8977;50.902;4.314;2024-01-27T14:54:38;10.80;99.90
17715;DHT22;8977;50.902;4.314;2024-01-27T14:57:07;10.90;99.90
17715;DHT22;8977;50.902;4.314;2024-01-27T14:59:34;10.80;99.90
17715;DHT22;8977;50.902;4.314;2024-01-27T15:02:01;10.80;99.90
17715;DHT22;8977;50.902;4.314;2024-01-27T15:04:28;10.80;99.90
17715;DHT22;8977;50.902;4.314;2024-01-27T15:06:55;10.80;99.90
17715;DHT22;8977;50.902;4.314;2024-01-27T15:09:23;10.80;99.90
17715;DHT22;8977;50.902;4.314;2024-01-27T15:11:50;10.70;99.90
17715;DHT22;8977;50.902;4.314;2024-01-27T15:14:19;10.70;99.90
17715;DHT22;8977;50.902;4.314;2024-01-27T15:16:46;10.70;99.90
17715;DHT22;8977;50.902;4.314;2024-01-27T15:19:13;10.60;99.90
17715;DHT22;8977;50.902;4.314;2024-01-27T15:21:39;10.60;99.90
17715;DHT22;8977;50.902;4.314;2024-01-27T15:24:06;10.70;99.90
17715;DHT22;8977;50.902;4.314;2024-01-27T15:26:34;10.60;99.90
17715;DHT22;8977;50.902;4.314;2024-01-27T15:29:01;10.60;99.90
17715;DHT22;8977;50.902;4.314;2024-01-27T15:31:30;10.60;99.90
17715;DHT22;8977;50.902;4.314;2024-01-27T15:33:57;10.70;99.90
17715;DHT22;8977;50.902;4.314;2024-01-27T15:36:23;10.60;99.90
17715;DHT22;8977;50.902;4.314;2024-01-27T15:38:50;10.60;99.90
17715;DHT22;8977;50.902;4.314;2024-01-27T15:41:17;10.50;99.90
17715;DHT22;8977;50.902;4.314;2024-01-27T15:43:44;10.60;99.90
17715;DHT22;8977;50.902;4.314;2024-01-27T15:46:13;10.50;99.90
17715;DHT22;8977;50.902;4.314;2024-01-27T15:48:41;10.60;99.90
17715;DHT22;8977;50.902;4.314;2024-01-27T15:51:08;10.50;99.90
17715;DHT22;8977;50.902;4.314;2024-01-27T15:53:35;10.50;99.90
17715;DHT22;8977;50.902;4.314;2024-01-27T15:56:02;10.40;99.90
17715;DHT22;8977;50.902;4.314;2024-01-27T15:58:29;10.40;99.90